GLD1793 SBSN-SBBV
Flight info
| Callsign | GLD1793 |
|---|---|
| Flight time | 1h 13m |
| Altitude | 38000 |
| Route | DCT SOBID DCT LODOK UZ24 ILVIS DCT ANBIX DCT |
| Aircraft | B738/M-SDFGIRY/S |
Departure
| Time | 2026-04-21 22:16 |
|---|---|
| Airport | Santarém - Maestro Wilson Fonseca International Airport (SBSN) |
Arrival
| Time | 2026-04-21 23:30 |
|---|---|
| Airport | Atlas Brasil Cantanhede International Airport (SBBV) |
| Time | Latitude | Longitude | Altitude | Speed | Heading |
|---|---|---|---|---|---|
| 2026-04-21 21:52 | -2.42357 | -54.78508 | 216 ft | 0 kts | 155° |
| 2026-04-21 22:06 | -2.42354 | -54.78510 | 205 ft | 2 kts | 154° |
| 2026-04-21 22:06 | -2.42340 | -54.78518 | 208 ft | 2 kts | 146° |
| 2026-04-21 22:06 | -2.42328 | -54.78529 | 187 ft | 2 kts | 94° |
| 2026-04-21 22:06 | -2.42331 | -54.78542 | 225 ft | 1 kts | 59° |
| 2026-04-21 22:07 | -2.42333 | -54.78544 | 196 ft | 0 kts | 59° |
| 2026-04-21 22:09 | -2.42323 | -54.78526 | 207 ft | 6 kts | 63° |
| 2026-04-21 22:09 | -2.42305 | -54.78473 | 209 ft | 9 kts | 77° |
| 2026-04-21 22:09 | -2.42299 | -54.78412 | 205 ft | 9 kts | 92° |
| 2026-04-21 22:10 | -2.42307 | -54.78354 | 208 ft | 8 kts | 98° |
| 2026-04-21 22:10 | -2.42276 | -54.78310 | 205 ft | 8 kts | 29° |
| 2026-04-21 22:10 | -2.42226 | -54.78285 | 212 ft | 8 kts | 25° |
| 2026-04-21 22:10 | -2.42181 | -54.78264 | 208 ft | 0 kts | 24° |
| 2026-04-21 22:15 | -2.42168 | -54.78258 | 212 ft | 8 kts | 24° |
| 2026-04-21 22:15 | -2.42113 | -54.78234 | 209 ft | 10 kts | 18° |
| 2026-04-21 22:15 | -2.42072 | -54.78269 | 207 ft | 10 kts | 263° |
| 2026-04-21 22:15 | -2.42074 | -54.78279 | 210 ft | 0 kts | 262° |
| 2026-04-21 22:16 | -2.42085 | -54.78358 | 206 ft | 47 kts | 261° |
| 2026-04-21 22:16 | -2.42192 | -54.79000 | 214 ft | 137 kts | 261° |
| 2026-04-21 22:16 | -2.42376 | -54.80161 | 459 ft | 190 kts | 261° |
| 2026-04-21 22:16 | -2.42592 | -54.81513 | 1464 ft | 199 kts | 260° |
| 2026-04-21 22:17 | -2.42811 | -54.82872 | 2548 ft | 208 kts | 260° |
| 2026-04-21 22:17 | -2.43065 | -54.84395 | 2893 ft | 236 kts | 260° |
| 2026-04-21 22:17 | -2.43276 | -54.86113 | 3148 ft | 265 kts | 274° |
| 2026-04-21 22:17 | -2.42648 | -54.87865 | 3908 ft | 270 kts | 301° |
| 2026-04-21 22:18 | -2.41672 | -54.89488 | 4803 ft | 275 kts | 301° |
| 2026-04-21 22:18 | -2.40670 | -54.91150 | 5589 ft | 282 kts | 301° |
| 2026-04-21 22:18 | -2.39650 | -54.92837 | 6452 ft | 285 kts | 301° |
| 2026-04-21 22:18 | -2.38618 | -54.94544 | 7262 ft | 288 kts | 301° |
| 2026-04-21 22:19 | -2.37572 | -54.96274 | 8059 ft | 292 kts | 301° |
| 2026-04-21 22:19 | -2.36518 | -54.98017 | 8906 ft | 294 kts | 301° |
| 2026-04-21 22:19 | -2.35466 | -54.99757 | 9732 ft | 298 kts | 301° |
| 2026-04-21 22:19 | -2.34381 | -55.01550 | 10332 ft | 308 kts | 301° |
| 2026-04-21 22:20 | -2.33227 | -55.03461 | 10505 ft | 333 kts | 301° |
| 2026-04-21 22:20 | -2.31985 | -55.05518 | 10676 ft | 356 kts | 301° |
| 2026-04-21 22:20 | -2.30667 | -55.07700 | 10857 ft | 375 kts | 301° |
| 2026-04-21 22:20 | -2.29298 | -55.09967 | 11248 ft | 385 kts | 301° |
| 2026-04-21 22:21 | -2.27906 | -55.12271 | 11820 ft | 389 kts | 301° |
| 2026-04-21 22:21 | -2.26520 | -55.14565 | 12430 ft | 391 kts | 301° |
| 2026-04-21 22:21 | -2.25110 | -55.16898 | 13041 ft | 394 kts | 301° |
| 2026-04-21 22:21 | -2.23688 | -55.19251 | 13634 ft | 396 kts | 301° |
| 2026-04-21 22:22 | -2.22257 | -55.21621 | 14139 ft | 400 kts | 301° |
| 2026-04-21 22:22 | -2.20812 | -55.24012 | 14610 ft | 403 kts | 301° |
| 2026-04-21 22:22 | -2.19355 | -55.26423 | 15094 ft | 406 kts | 301° |
| 2026-04-21 22:22 | -2.17889 | -55.28849 | 15602 ft | 408 kts | 301° |
| 2026-04-21 22:23 | -2.16413 | -55.31291 | 16087 ft | 411 kts | 301° |
| 2026-04-21 22:23 | -2.14927 | -55.33751 | 16550 ft | 414 kts | 301° |
| 2026-04-21 22:23 | -2.13452 | -55.36193 | 17001 ft | 417 kts | 302° |
| 2026-04-21 22:23 | -2.11927 | -55.38715 | 17457 ft | 420 kts | 302° |
| 2026-04-21 22:24 | -2.10434 | -55.41186 | 17891 ft | 423 kts | 302° |
| 2026-04-21 22:24 | -2.08905 | -55.43716 | 18294 ft | 425 kts | 302° |
| 2026-04-21 22:24 | -2.07370 | -55.46256 | 18656 ft | 428 kts | 302° |
| 2026-04-21 22:24 | -2.05824 | -55.48814 | 19014 ft | 431 kts | 302° |
| 2026-04-21 22:25 | -2.04267 | -55.51390 | 19373 ft | 433 kts | 302° |
| 2026-04-21 22:25 | -2.02701 | -55.53980 | 19715 ft | 436 kts | 302° |
| 2026-04-21 22:25 | -2.01129 | -55.56580 | 20049 ft | 439 kts | 302° |
| 2026-04-21 22:25 | -1.99547 | -55.59198 | 20387 ft | 441 kts | 302° |
| 2026-04-21 22:26 | -1.97956 | -55.61829 | 20714 ft | 444 kts | 302° |
| 2026-04-21 22:26 | -1.96350 | -55.64486 | 21042 ft | 446 kts | 302° |
| 2026-04-21 22:26 | -1.94741 | -55.67147 | 21359 ft | 449 kts | 302° |
| 2026-04-21 22:26 | -1.93116 | -55.69834 | 21677 ft | 451 kts | 302° |
| 2026-04-21 22:27 | -1.91513 | -55.72486 | 21969 ft | 454 kts | 302° |
| 2026-04-21 22:27 | -1.89876 | -55.75194 | 22267 ft | 456 kts | 302° |
| 2026-04-21 22:27 | -1.88229 | -55.77918 | 22563 ft | 458 kts | 302° |
| 2026-04-21 22:27 | -1.86575 | -55.80652 | 22846 ft | 461 kts | 302° |
| 2026-04-21 22:28 | -1.84912 | -55.83401 | 23102 ft | 463 kts | 302° |
| 2026-04-21 22:28 | -1.83239 | -55.86168 | 23372 ft | 466 kts | 302° |
| 2026-04-21 22:28 | -1.81559 | -55.88945 | 23606 ft | 468 kts | 302° |
| 2026-04-21 22:28 | -1.79872 | -55.91736 | 23834 ft | 469 kts | 302° |
| 2026-04-21 22:29 | -1.78181 | -55.94531 | 24056 ft | 471 kts | 302° |
| 2026-04-21 22:29 | -1.76479 | -55.97345 | 24272 ft | 473 kts | 302° |
| 2026-04-21 22:29 | -1.74790 | -56.00137 | 24474 ft | 475 kts | 302° |
| 2026-04-21 22:29 | -1.73078 | -56.02967 | 24691 ft | 477 kts | 302° |
| 2026-04-21 22:30 | -1.71356 | -56.05814 | 24907 ft | 479 kts | 302° |
| 2026-04-21 22:30 | -1.69627 | -56.08672 | 25114 ft | 480 kts | 302° |
| 2026-04-21 22:30 | -1.67898 | -56.11530 | 25312 ft | 482 kts | 302° |
| 2026-04-21 22:30 | -1.66159 | -56.14404 | 25509 ft | 484 kts | 302° |
| 2026-04-21 22:31 | -1.64417 | -56.17283 | 25704 ft | 486 kts | 302° |
| 2026-04-21 22:31 | -1.62668 | -56.20174 | 25896 ft | 487 kts | 302° |
| 2026-04-21 22:31 | -1.60907 | -56.23084 | 26088 ft | 489 kts | 302° |
| 2026-04-21 22:31 | -1.59143 | -56.25998 | 26279 ft | 490 kts | 302° |
| 2026-04-21 22:32 | -1.57374 | -56.28922 | 26440 ft | 492 kts | 302° |
| 2026-04-21 22:32 | -1.55599 | -56.31855 | 26590 ft | 495 kts | 302° |
| 2026-04-21 22:32 | -1.53814 | -56.34803 | 26781 ft | 495 kts | 302° |
| 2026-04-21 22:32 | -1.52029 | -56.37753 | 26978 ft | 497 kts | 302° |
| 2026-04-21 22:33 | -1.50234 | -56.40719 | 27137 ft | 498 kts | 302° |
| 2026-04-21 22:33 | -1.48438 | -56.43686 | 27296 ft | 500 kts | 302° |
| 2026-04-21 22:33 | -1.46632 | -56.46670 | 27449 ft | 502 kts | 302° |
| 2026-04-21 22:33 | -1.44843 | -56.49625 | 27611 ft | 503 kts | 302° |
| 2026-04-21 22:34 | -1.43026 | -56.52627 | 27761 ft | 505 kts | 302° |
| 2026-04-21 22:34 | -1.41207 | -56.55631 | 27929 ft | 505 kts | 301° |
| 2026-04-21 22:34 | -1.39389 | -56.58635 | 28156 ft | 505 kts | 302° |
| 2026-04-21 22:34 | -1.37571 | -56.61637 | 28411 ft | 504 kts | 302° |
| 2026-04-21 22:35 | -1.35755 | -56.64637 | 28655 ft | 504 kts | 301° |
| 2026-04-21 22:35 | -1.33939 | -56.67636 | 28857 ft | 505 kts | 301° |
| 2026-04-21 22:35 | -1.32117 | -56.70645 | 29079 ft | 505 kts | 301° |
| 2026-04-21 22:35 | -1.30298 | -56.73649 | 29332 ft | 505 kts | 301° |
| 2026-04-21 22:36 | -1.26666 | -56.79648 | 29823 ft | 505 kts | 302° |
| 2026-04-21 22:36 | -1.24843 | -56.82658 | 30026 ft | 506 kts | 302° |
| 2026-04-21 22:36 | -1.23017 | -56.85673 | 30239 ft | 505 kts | 302° |
| 2026-04-21 22:37 | -1.21204 | -56.88666 | 30489 ft | 505 kts | 302° |
| 2026-04-21 22:37 | -1.19407 | -56.91634 | 30735 ft | 504 kts | 302° |
| 2026-04-21 22:37 | -1.17592 | -56.94631 | 30954 ft | 504 kts | 302° |
| 2026-04-21 22:37 | -1.15776 | -56.97629 | 31188 ft | 504 kts | 302° |
| 2026-04-21 22:38 | -1.13967 | -57.00616 | 31433 ft | 503 kts | 302° |
| 2026-04-21 22:38 | -1.12151 | -57.03613 | 31689 ft | 503 kts | 302° |
| 2026-04-21 22:38 | -1.10341 | -57.06601 | 31932 ft | 502 kts | 301° |
| 2026-04-21 22:38 | -1.08528 | -57.09595 | 32187 ft | 502 kts | 301° |
| 2026-04-21 22:39 | -1.06720 | -57.12580 | 32448 ft | 502 kts | 301° |
| 2026-04-21 22:39 | -1.04914 | -57.15561 | 32697 ft | 502 kts | 302° |
| 2026-04-21 22:39 | -1.03106 | -57.18545 | 32943 ft | 502 kts | 302° |
| 2026-04-21 22:39 | -1.01301 | -57.21525 | 33210 ft | 501 kts | 301° |
| 2026-04-21 22:40 | -0.99500 | -57.24498 | 33488 ft | 501 kts | 301° |
| 2026-04-21 22:40 | -0.97694 | -57.27480 | 33758 ft | 500 kts | 301° |
| 2026-04-21 22:40 | -0.95887 | -57.30461 | 33996 ft | 500 kts | 301° |
| 2026-04-21 22:40 | -0.94091 | -57.33425 | 34308 ft | 497 kts | 301° |
| 2026-04-21 22:41 | -0.92324 | -57.36342 | 34629 ft | 495 kts | 301° |
| 2026-04-21 22:41 | -0.90545 | -57.39279 | 34880 ft | 494 kts | 301° |
| 2026-04-21 22:41 | -0.88762 | -57.42221 | 35057 ft | 495 kts | 302° |
| 2026-04-21 22:41 | -0.86974 | -57.45172 | 35230 ft | 496 kts | 302° |
| 2026-04-21 22:42 | -0.85191 | -57.48114 | 35475 ft | 495 kts | 302° |
| 2026-04-21 22:42 | -0.83410 | -57.51054 | 35751 ft | 494 kts | 302° |
| 2026-04-21 22:42 | -0.81633 | -57.53987 | 36008 ft | 492 kts | 302° |
| 2026-04-21 22:42 | -0.79859 | -57.56915 | 36222 ft | 492 kts | 302° |
| 2026-04-21 22:43 | -0.78084 | -57.59845 | 36432 ft | 492 kts | 302° |
| 2026-04-21 22:43 | -0.76313 | -57.62767 | 36664 ft | 491 kts | 302° |
| 2026-04-21 22:43 | -0.74540 | -57.65693 | 36896 ft | 491 kts | 302° |
| 2026-04-21 22:43 | -0.72774 | -57.68609 | 37073 ft | 491 kts | 302° |
| 2026-04-21 22:44 | -0.71005 | -57.71529 | 37221 ft | 492 kts | 302° |
| 2026-04-21 22:44 | -0.69232 | -57.74454 | 37435 ft | 492 kts | 302° |
| 2026-04-21 22:44 | -0.67459 | -57.77372 | 37683 ft | 490 kts | 303° |
| 2026-04-21 22:44 | -0.65488 | -57.80137 | 37877 ft | 488 kts | 312° |
| 2026-04-21 22:45 | -0.60843 | -57.85103 | 37891 ft | 488 kts | 315° |
| 2026-04-21 22:45 | -0.56146 | -57.89947 | 37878 ft | 483 kts | 315° |
| 2026-04-21 22:46 | -0.51515 | -57.94793 | 37883 ft | 480 kts | 314° |
| 2026-04-21 22:46 | -0.46968 | -57.99608 | 37887 ft | 478 kts | 314° |
| 2026-04-21 22:47 | -0.42407 | -58.04452 | 37890 ft | 478 kts | 314° |
| 2026-04-21 22:47 | -0.37838 | -58.09302 | 37892 ft | 480 kts | 314° |
| 2026-04-21 22:48 | -0.33248 | -58.14172 | 37898 ft | 482 kts | 314° |
| 2026-04-21 22:48 | -0.28635 | -58.19064 | 37890 ft | 485 kts | 314° |
| 2026-04-21 22:49 | -0.24026 | -58.23953 | 37893 ft | 487 kts | 314° |
| 2026-04-21 22:49 | -0.19369 | -58.28892 | 37885 ft | 489 kts | 314° |
| 2026-04-21 22:50 | -0.14707 | -58.33838 | 37884 ft | 489 kts | 314° |
| 2026-04-21 22:50 | -0.10038 | -58.38791 | 37884 ft | 489 kts | 314° |
| 2026-04-21 22:51 | -0.05373 | -58.43741 | 37885 ft | 489 kts | 314° |
| 2026-04-21 22:51 | -0.00715 | -58.48682 | 37888 ft | 488 kts | 314° |
| 2026-04-21 22:52 | 0.03952 | -58.53625 | 37879 ft | 489 kts | 314° |
| 2026-04-21 22:52 | 0.08623 | -58.58569 | 37886 ft | 490 kts | 314° |
| 2026-04-21 22:53 | 0.13288 | -58.63511 | 37885 ft | 492 kts | 314° |
| 2026-04-21 22:53 | 0.17988 | -58.68489 | 37884 ft | 494 kts | 314° |
| 2026-04-21 22:54 | 0.22713 | -58.73495 | 37885 ft | 495 kts | 314° |
| 2026-04-21 22:54 | 0.27442 | -58.78506 | 37882 ft | 496 kts | 314° |
| 2026-04-21 22:55 | 0.32187 | -58.83532 | 37878 ft | 497 kts | 314° |
| 2026-04-21 22:55 | 0.36920 | -58.88547 | 37880 ft | 495 kts | 314° |
| 2026-04-21 22:56 | 0.41640 | -58.93548 | 37871 ft | 493 kts | 314° |
| 2026-04-21 22:56 | 0.46336 | -58.98524 | 37881 ft | 491 kts | 314° |
| 2026-04-21 22:57 | 0.51019 | -59.03486 | 37870 ft | 489 kts | 314° |
| 2026-04-21 22:57 | 0.55679 | -59.08424 | 37881 ft | 487 kts | 314° |
| 2026-04-21 22:58 | 0.60324 | -59.13345 | 37880 ft | 486 kts | 314° |
| 2026-04-21 22:58 | 0.64930 | -59.18226 | 37881 ft | 485 kts | 314° |
| 2026-04-21 22:59 | 0.69553 | -59.23125 | 37889 ft | 484 kts | 314° |
| 2026-04-21 22:59 | 0.74172 | -59.28020 | 37877 ft | 483 kts | 314° |
| 2026-04-21 23:00 | 0.77996 | -59.32074 | 37891 ft | 482 kts | 314° |
| 2026-04-21 23:00 | 0.82698 | -59.36839 | 37887 ft | 480 kts | 317° |
| 2026-04-21 23:01 | 0.87629 | -59.41354 | 37884 ft | 480 kts | 319° |
| 2026-04-21 23:01 | 0.92570 | -59.45849 | 37886 ft | 480 kts | 318° |
| 2026-04-21 23:02 | 0.97486 | -59.50383 | 37883 ft | 481 kts | 318° |
| 2026-04-21 23:02 | 1.02397 | -59.54937 | 37883 ft | 482 kts | 317° |
| 2026-04-21 23:03 | 1.07289 | -59.59472 | 37880 ft | 483 kts | 318° |
| 2026-04-21 23:03 | 1.09762 | -59.61765 | 37504 ft | 489 kts | 318° |
| 2026-04-21 23:03 | 1.12270 | -59.64087 | 36941 ft | 489 kts | 318° |
| 2026-04-21 23:04 | 1.14762 | -59.66396 | 36319 ft | 487 kts | 318° |
| 2026-04-21 23:04 | 1.17241 | -59.68689 | 35723 ft | 487 kts | 318° |
| 2026-04-21 23:04 | 1.19735 | -59.70994 | 35035 ft | 488 kts | 318° |
| 2026-04-21 23:04 | 1.22241 | -59.73311 | 34318 ft | 490 kts | 318° |
| 2026-04-21 23:05 | 1.24750 | -59.75629 | 33560 ft | 493 kts | 318° |
| 2026-04-21 23:05 | 1.27279 | -59.77968 | 32758 ft | 494 kts | 318° |
| 2026-04-21 23:05 | 1.29804 | -59.80303 | 31994 ft | 495 kts | 318° |
| 2026-04-21 23:05 | 1.32326 | -59.82636 | 31398 ft | 492 kts | 317° |
| 2026-04-21 23:06 | 1.34823 | -59.84947 | 30853 ft | 487 kts | 317° |
| 2026-04-21 23:06 | 1.37299 | -59.87238 | 30253 ft | 485 kts | 317° |
| 2026-04-21 23:06 | 1.39771 | -59.89524 | 29600 ft | 483 kts | 317° |
| 2026-04-21 23:06 | 1.42190 | -59.91763 | 29009 ft | 478 kts | 317° |
| 2026-04-21 23:07 | 1.44616 | -59.94008 | 28421 ft | 472 kts | 317° |
| 2026-04-21 23:07 | 1.47016 | -59.96229 | 27861 ft | 467 kts | 317° |
| 2026-04-21 23:07 | 1.49382 | -59.98418 | 27323 ft | 462 kts | 317° |
| 2026-04-21 23:07 | 1.51730 | -60.00591 | 26793 ft | 456 kts | 317° |
| 2026-04-21 23:08 | 1.54048 | -60.02737 | 26268 ft | 452 kts | 317° |
| 2026-04-21 23:08 | 1.56339 | -60.04856 | 25752 ft | 447 kts | 317° |
| 2026-04-21 23:08 | 1.58599 | -60.06945 | 25462 ft | 437 kts | 317° |
| 2026-04-21 23:08 | 1.60813 | -60.08990 | 25011 ft | 432 kts | 317° |
| 2026-04-21 23:09 | 1.63007 | -60.11016 | 24548 ft | 427 kts | 317° |
| 2026-04-21 23:09 | 1.65189 | -60.13029 | 24057 ft | 424 kts | 317° |
| 2026-04-21 23:09 | 1.67352 | -60.15027 | 23539 ft | 422 kts | 318° |
| 2026-04-21 23:09 | 1.69509 | -60.17018 | 22960 ft | 420 kts | 318° |
| 2026-04-21 23:10 | 1.71647 | -60.18994 | 22414 ft | 416 kts | 318° |
| 2026-04-21 23:10 | 1.73765 | -60.20950 | 21887 ft | 413 kts | 317° |
| 2026-04-21 23:10 | 1.75868 | -60.22892 | 21375 ft | 409 kts | 317° |
| 2026-04-21 23:10 | 1.77923 | -60.24791 | 20880 ft | 406 kts | 317° |
| 2026-04-21 23:11 | 1.79988 | -60.26699 | 20387 ft | 402 kts | 317° |
| 2026-04-21 23:11 | 1.82034 | -60.28589 | 19898 ft | 399 kts | 317° |
| 2026-04-21 23:11 | 1.84068 | -60.30468 | 19399 ft | 397 kts | 317° |
| 2026-04-21 23:11 | 1.86087 | -60.32334 | 18896 ft | 395 kts | 316° |
| 2026-04-21 23:12 | 1.88100 | -60.34194 | 18399 ft | 393 kts | 316° |
| 2026-04-21 23:12 | 1.90104 | -60.36046 | 17877 ft | 391 kts | 316° |
| 2026-04-21 23:12 | 1.92095 | -60.37886 | 17352 ft | 388 kts | 316° |
| 2026-04-21 23:12 | 1.94071 | -60.39712 | 16847 ft | 385 kts | 316° |
| 2026-04-21 23:13 | 1.96034 | -60.41526 | 16368 ft | 382 kts | 316° |
| 2026-04-21 23:13 | 1.97979 | -60.43325 | 15888 ft | 379 kts | 316° |
| 2026-04-21 23:13 | 1.99899 | -60.45100 | 15413 ft | 377 kts | 316° |
| 2026-04-21 23:13 | 2.01830 | -60.46885 | 14942 ft | 374 kts | 316° |
| 2026-04-21 23:14 | 2.03717 | -60.48629 | 14464 ft | 373 kts | 316° |
| 2026-04-21 23:14 | 2.05615 | -60.50384 | 13996 ft | 371 kts | 316° |
| 2026-04-21 23:14 | 2.07506 | -60.52132 | 13502 ft | 369 kts | 316° |
| 2026-04-21 23:14 | 2.09385 | -60.53870 | 13009 ft | 367 kts | 316° |
| 2026-04-21 23:15 | 2.11254 | -60.55597 | 12530 ft | 364 kts | 316° |
| 2026-04-21 23:15 | 2.13110 | -60.57314 | 12059 ft | 362 kts | 316° |
| 2026-04-21 23:15 | 2.14950 | -60.59015 | 11603 ft | 359 kts | 316° |
| 2026-04-21 23:15 | 2.16777 | -60.60704 | 11149 ft | 356 kts | 316° |
| 2026-04-21 23:16 | 2.18704 | -60.62242 | 10688 ft | 355 kts | 327° |
| 2026-04-21 23:16 | 2.20908 | -60.63312 | 10423 ft | 348 kts | 338° |
| 2026-04-21 23:16 | 2.23136 | -60.64178 | 10226 ft | 339 kts | 338° |
| 2026-04-21 23:16 | 2.25303 | -60.65004 | 10079 ft | 329 kts | 338° |
| 2026-04-21 23:17 | 2.27415 | -60.65809 | 9932 ft | 319 kts | 338° |
| 2026-04-21 23:17 | 2.29456 | -60.66592 | 9772 ft | 311 kts | 338° |
| 2026-04-21 23:17 | 2.31447 | -60.67359 | 9504 ft | 306 kts | 338° |
| 2026-04-21 23:17 | 2.33413 | -60.68122 | 9137 ft | 306 kts | 338° |
| 2026-04-21 23:18 | 2.35407 | -60.68897 | 8776 ft | 306 kts | 338° |
| 2026-04-21 23:18 | 2.37389 | -60.69669 | 8447 ft | 304 kts | 338° |
| 2026-04-21 23:18 | 2.39352 | -60.70434 | 8124 ft | 302 kts | 339° |
| 2026-04-21 23:18 | 2.41306 | -60.71196 | 7793 ft | 300 kts | 339° |
| 2026-04-21 23:19 | 2.43252 | -60.71955 | 7490 ft | 299 kts | 339° |
| 2026-04-21 23:19 | 2.45182 | -60.72708 | 7177 ft | 297 kts | 339° |
| 2026-04-21 23:19 | 2.47107 | -60.73459 | 6865 ft | 296 kts | 339° |
| 2026-04-21 23:19 | 2.49022 | -60.74207 | 6556 ft | 295 kts | 339° |
| 2026-04-21 23:20 | 2.50933 | -60.74952 | 6240 ft | 293 kts | 339° |
| 2026-04-21 23:20 | 2.52831 | -60.75693 | 5911 ft | 292 kts | 339° |
| 2026-04-21 23:20 | 2.54699 | -60.76422 | 5579 ft | 284 kts | 339° |
| 2026-04-21 23:20 | 2.56515 | -60.77132 | 5278 ft | 275 kts | 340° |
| 2026-04-21 23:21 | 2.58258 | -60.77813 | 4994 ft | 268 kts | 339° |
| 2026-04-21 23:21 | 2.59903 | -60.78632 | 4704 ft | 261 kts | 329° |
| 2026-04-21 23:21 | 2.61321 | -60.79720 | 4443 ft | 255 kts | 318° |
| 2026-04-21 23:21 | 2.62478 | -60.81047 | 4288 ft | 251 kts | 306° |
| 2026-04-21 23:22 | 2.63332 | -60.82554 | 4227 ft | 248 kts | 294° |
| 2026-04-21 23:22 | 2.63884 | -60.84226 | 4147 ft | 261 kts | 284° |
| 2026-04-21 23:22 | 2.64298 | -60.86030 | 4080 ft | 272 kts | 283° |
| 2026-04-21 23:22 | 2.64704 | -60.87896 | 3837 ft | 274 kts | 283° |
| 2026-04-21 23:23 | 2.65096 | -60.89711 | 3782 ft | 258 kts | 283° |
| 2026-04-21 23:23 | 2.65566 | -60.91363 | 3633 ft | 237 kts | 301° |
| 2026-04-21 23:23 | 2.66717 | -60.92373 | 3484 ft | 213 kts | 343° |
| 2026-04-21 23:23 | 2.68085 | -60.92310 | 3325 ft | 192 kts | 30° |
| 2026-04-21 23:24 | 2.68857 | -60.91369 | 3139 ft | 177 kts | 78° |
| 2026-04-21 23:24 | 2.68807 | -60.90166 | 2938 ft | 175 kts | 95° |
| 2026-04-21 23:24 | 2.69078 | -60.88997 | 2643 ft | 178 kts | 49° |
| 2026-04-21 23:24 | 2.69965 | -60.88118 | 2577 ft | 181 kts | 45° |
| 2026-04-21 23:25 | 2.70856 | -60.87225 | 2485 ft | 180 kts | 45° |
| 2026-04-21 23:25 | 2.71727 | -60.86341 | 2462 ft | 177 kts | 46° |
| 2026-04-21 23:25 | 2.72595 | -60.85454 | 2463 ft | 178 kts | 46° |
| 2026-04-21 23:25 | 2.73462 | -60.84566 | 2462 ft | 179 kts | 46° |
| 2026-04-21 23:26 | 2.74332 | -60.83671 | 2473 ft | 180 kts | 46° |
| 2026-04-21 23:26 | 2.75210 | -60.82764 | 2472 ft | 182 kts | 46° |
| 2026-04-21 23:26 | 2.76088 | -60.81855 | 2467 ft | 182 kts | 46° |
| 2026-04-21 23:26 | 2.76970 | -60.80942 | 2458 ft | 182 kts | 46° |
| 2026-04-21 23:27 | 2.77844 | -60.80036 | 2445 ft | 178 kts | 46° |
| 2026-04-21 23:27 | 2.78677 | -60.79172 | 2465 ft | 170 kts | 46° |
| 2026-04-21 23:27 | 2.79504 | -60.78314 | 2203 ft | 177 kts | 46° |
| 2026-04-21 23:27 | 2.80341 | -60.77415 | 1823 ft | 175 kts | 51° |
| 2026-04-21 23:28 | 2.80980 | -60.76406 | 1409 ft | 176 kts | 64° |
| 2026-04-21 23:28 | 2.81452 | -60.75309 | 1128 ft | 164 kts | 66° |
| 2026-04-21 23:28 | 2.81936 | -60.74307 | 977 ft | 155 kts | 63° |
| 2026-04-21 23:28 | 2.82405 | -60.73409 | 845 ft | 135 kts | 64° |
| 2026-04-21 23:29 | 2.82803 | -60.72598 | 646 ft | 129 kts | 65° |
| 2026-04-21 23:29 | 2.83225 | -60.71766 | 557 ft | 132 kts | 64° |
| 2026-04-21 23:29 | 2.83640 | -60.70957 | 413 ft | 132 kts | 64° |
| 2026-04-21 23:29 | 2.84052 | -60.70146 | 311 ft | 130 kts | 64° |
| 2026-04-21 23:30 | 2.84426 | -60.69414 | 277 ft | 93 kts | 63° |
| 2026-04-21 23:30 | 2.84632 | -60.69015 | 279 ft | 36 kts | 63° |
| 2026-04-21 23:30 | 2.84712 | -60.68860 | 281 ft | 26 kts | 62° |
| 2026-04-21 23:30 | 2.84792 | -60.68702 | 280 ft | 24 kts | 64° |
| 2026-04-21 23:31 | 2.84875 | -60.68542 | 278 ft | 22 kts | 62° |
| 2026-04-21 23:31 | 2.84880 | -60.68485 | 278 ft | 8 kts | 130° |
| 2026-04-21 23:31 | 2.84821 | -60.68449 | 278 ft | 10 kts | 152° |
| 2026-04-21 23:31 | 2.84755 | -60.68447 | 282 ft | 11 kts | 224° |
| 2026-04-21 23:32 | 2.84712 | -60.68519 | 278 ft | 12 kts | 241° |
| 2026-04-21 23:32 | 2.84670 | -60.68594 | 279 ft | 12 kts | 241° |
| 2026-04-21 23:32 | 2.84630 | -60.68676 | 279 ft | 17 kts | 244° |
| 2026-04-21 23:32 | 2.84577 | -60.68786 | 279 ft | 18 kts | 243° |
| 2026-04-21 23:33 | 2.84513 | -60.68885 | 279 ft | 9 kts | 186° |
| 2026-04-21 23:33 | 2.84483 | -60.68884 | 279 ft | 3 kts | 177° |
| 2026-04-21 23:33 | 2.84435 | -60.68906 | 279 ft | 10 kts | 233° |
| 2026-04-21 23:33 | 2.84399 | -60.68930 | 279 ft | 4 kts | 156° |
| 2026-04-21 23:34 | 2.84385 | -60.68924 | 283 ft | 0 kts | 156° |